Latest Weather Observations for Cunderdin Airport

IDW60801

Issued at 4:03 am WST Friday 30 January 2015 (issued every 30 minutes, with the page automatically refreshed every 10 minutes)

About weather observations | Map of weather stations | Latest weather observations for WA | Other Formats
Station Details ID: 010286 Name: CUNDERDIN AIRFIELD Lat: -31.62 Lon: 117.22 Height: 216.7 m
Data from the previous 72 hours. | See also: Recent months at Cunderdin Airport
Date/Time
WST
Temp
°C
App
Temp
°C
Dew
Point
Rel
Hum
%
Delta-T
°C
Wind Press
QNH
hPa
Press
MSL
hPa
Rain
since 9 am
mm
Dir
 
Spd
km/h
Gust
km/h
Spd
kts
Gust
kts
30/04:00am 24.9 21.2 4.6 27 10.3 SE 13 19 7 10 1010.6 1009.3 0.0
30/03:30am 25.2 21.5 4.3 26 10.5 SE 13 15 7 8 1010.6 1009.3 0.0
30/03:00am 26.1 22.4 4.6 25 11.0 SE 13 15 7 8 1010.7 1009.4 0.0
30/02:30am 26.2 22.1 4.1 24 11.2 SE 15 19 8 10 1010.7 1009.4 0.0
30/02:00am 26.5 22.4 4.3 24 11.3 SE 15 20 8 11 1010.6 1009.3 0.0
30/01:30am 27.0 22.9 4.1 23 11.6 SE 15 20 8 11 1010.5 1009.2 0.0
30/01:00am 27.6 23.8 4.0 22 12.0 SE 13 19 7 10 1010.6 1009.3 0.0
30/12:30am 28.0 24.0 5.0 23 11.9 SE 15 20 8 11 1010.9 1009.7 0.0
30/12:00am 28.6 24.9 6.1 24 12.0 SE 15 20 8 11 1010.9 1009.7 0.0
 
Date/Time
WST
Temp
°C
App
Temp
°C
Dew
Point
Rel
Hum
%
Delta-T
°C
Wind Press
QNH
hPa
Press
MSL
hPa
Rain
since 9 am
mm
Dir
 
Spd
km/h
Gust
km/h
Spd
kts
Gust
kts
29/11:30pm 29.8 26.1 6.5 23 12.5 SE 15 19 8 10 1010.9 1009.7 0.0
29/11:00pm 30.1 27.4 7.3 24 12.5 ESE 11 17 6 9 1011.5 1010.3 0.0
29/10:30pm 30.7 27.7 7.8 24 12.6 ENE 13 20 7 11 1011.7 1010.5 0.0
29/10:00pm 31.0 25.6 8.1 24 12.7 SSE 26 37 14 20 1010.6 1009.3 0.0
29/09:30pm 32.0 25.7 7.6 22 13.5 SSE 30 39 16 21 1010.2 1008.9 0.0
29/09:29pm 32.0 25.9 8.3 23 13.3 SSE 30 39 16 21 1010.2 1008.9 0.0
29/09:00pm 32.4 28.4 6.6 20 14.1 SSE 17 20 9 11 1009.8 1008.5 0.0
29/08:30pm 32.2 28.1 6.4 20 14.0 S 17 19 9 10 1009.4 1008.2 0.0
29/08:00pm 32.3 28.1 5.7 19 14.3 S 17 19 9 10 1009.0 1007.8 0.0
29/07:30pm 33.5 28.4 5.9 18 15.0 SSW 22 30 12 16 1008.5 1007.3 0.0
29/07:00pm 35.3 31.9 5.7 16 16.2 S 13 15 7 8 1008.0 1006.8 0.0
29/06:30pm 35.9 32.2 6.2 16 16.4 S 15 20 8 11 1007.8 1006.6 0.0
29/06:00pm 36.1 32.8 6.3 16 16.5 SE 13 19 7 10 1007.5 1006.3 0.0
29/05:30pm 36.1 31.6 6.3 16 16.5 SSE 19 26 10 14 1007.4 1006.2 0.0
29/05:00pm 37.0 31.9 6.1 15 17.2 S 22 33 12 18 1007.0 1005.8 0.0
29/04:30pm 36.7 32.0 5.9 15 17.0 SE 20 32 11 17 1007.0 1005.8 0.0
29/04:00pm 37.3 33.0 5.3 14 17.6 SSE 17 28 9 15 1007.5 1006.3 0.0
29/03:30pm 36.8 32.2 3.9 13 17.6 SSE 17 28 9 15 1007.7 1006.5 0.0
29/03:00pm 37.4 35.4 4.4 13 17.9 WNW 4 11 2 6 1007.8 1006.6 0.0
29/02:30pm 38.3 34.7 5.0 13 18.3 WSW 13 20 7 11 1008.2 1007.0 0.0
29/02:00pm 39.1 35.7 5.7 13 18.6 SW 13 20 7 11 1008.4 1007.2 0.0
29/01:30pm 38.7 35.3 4.2 12 18.8 SSE 11 24 6 13 1008.9 1007.7 0.0
29/01:00pm 37.2 33.8 4.2 13 17.8 ESE 11 32 6 17 1009.4 1008.2 0.0
29/12:30pm 36.4 32.3 4.6 14 17.2 S 15 24 8 13 1010.0 1008.7 0.0
29/12:00pm 34.5 30.7 4.1 15 16.2 SSE 13 22 7 12 1010.5 1009.2 0.0
29/11:30am 33.8 29.4 4.5 16 15.6 SE 17 24 9 13 1010.9 1009.7 0.0
29/11:00am 34.9 30.6 5.4 16 16.0 SE 17 24 9 13 1011.0 1009.8 0.0
29/10:30am 34.6 30.3 5.1 16 15.9 SSE 17 24 9 13 1011.3 1010.1 0.0
29/10:00am 33.2 28.8 4.9 17 15.1 SSE 17 26 9 14 1011.4 1010.2 0.0
29/09:30am 32.1 27.7 4.8 18 14.5 SSE 17 24 9 13 1011.4 1010.2 0.0
29/09:00am 31.1 26.5 5.5 20 13.7 SSE 19 26 10 14 1011.7 1010.5 0.0
29/08:30am 29.2 24.5 7.7 26 11.8 S 22 28 12 15 1011.5 1010.3 0.0
29/08:00am 29.6 25.1 4.3 20 13.1 S 17 24 9 13 1011.4 1010.2 0.0
29/07:30am 27.0 23.2 5.9 26 11.1 SSW 15 20 8 11 1011.2 1010.0 0.0
29/07:00am 25.5 22.5 6.2 29 10.1 SE 11 17 6 9 1010.4 1009.1 0.0
29/06:30am 25.0 21.2 5.7 29 10.0 ESE 15 20 8 11 1010.0 1008.7 0.0
29/06:00am 24.2 20.1 6.0 31 9.4 SE 17 20 9 11 1009.7 1008.4 0.0
29/05:30am 23.3 19.9 6.1 33 8.8 ESE 13 15 7 8 1009.0 1007.8 0.0
29/05:00am 23.1 20.1 7.6 37 8.2 E 13 17 7 9 1008.6 1007.4 0.0
29/04:30am 21.1 19.8 10.0 49 6.1 ENE 7 9 4 5 1008.4 1007.2 0.0
29/04:00am 22.0 19.6 10.2 47 6.5 ENE 13 15 7 8 1008.1 1006.9 0.0
29/03:30am 22.9 21.1 10.7 46 6.8 E 11 13 6 7 1008.1 1006.9 0.0
29/03:00am 23.1 21.3 10.9 46 6.8 E 11 13 6 7 1008.0 1006.8 0.0
29/02:30am 24.0 21.9 11.3 45 7.2 E 13 17 7 9 1008.2 1007.0 0.0
29/02:00am 25.2 23.0 12.1 44 7.6 ESE 15 20 8 11 1008.2 1007.0 0.0
29/01:30am 25.5 23.0 12.4 44 7.6 ESE 17 22 9 12 1008.3 1007.1 0.0
29/01:00am 25.6 24.2 12.1 43 7.8 SE 11 15 6 8 1008.8 1007.6 0.0
29/12:30am 26.2 24.8 12.3 42 8.1 SE 11 17 6 9 1009.1 1007.9 0.0
29/12:00am 26.7 24.1 12.0 40 8.5 ESE 17 22 9 12 1008.9 1007.7 0.0
 
Date/Time
WST
Temp
°C
App
Temp
°C
Dew
Point
Rel
Hum
%
Delta-T
°C
Wind Press
QNH
hPa
Press
MSL
hPa
Rain
since 9 am
mm
Dir
 
Spd
km/h
Gust
km/h
Spd
kts
Gust
kts
28/11:30pm 27.1 23.9 12.0 39 8.8 SE 20 30 11 16 1009.0 1007.8 0.0
28/11:00pm 27.5 23.9 11.9 38 9.1 SE 22 35 12 19 1008.9 1007.7 0.0
28/10:30pm 28.1 24.7 12.4 37 9.2 SE 22 33 12 18 1008.9 1007.7 0.0
28/10:00pm 29.0 25.1 12.0 35 10.0 SE 24 32 13 17 1008.6 1007.4 0.0
28/09:30pm 28.4 25.5 6.5 25 11.7 ENE 11 13 6 7 1007.8 1006.6 0.0
28/09:00pm 29.5 26.7 6.8 24 12.3 ENE 11 13 6 7 1007.6 1006.4 0.0
28/08:30pm 29.9 27.2 7.2 24 12.4 ENE 11 13 6 7 1007.3 1006.1 0.0
28/08:00pm 31.3 28.5 7.1 22 13.3 ENE 11 11 6 6 1006.9 1005.7 0.0
28/07:30pm 33.1 30.0 7.1 20 14.4 ENE 13 15 7 8 1006.6 1005.3 0.0
28/07:00pm 35.2 30.8 6.5 17 15.9 ENE 19 24 10 13 1006.4 1005.1 0.0
28/06:30pm 37.0 33.3 6.1 15 17.1 NE 15 20 8 11 1006.3 1005.0 0.0
28/06:00pm 37.5 33.1 6.5 15 17.4 E 19 24 10 13 1006.0 1004.7 0.0
28/05:30pm 37.9 33.2 7.7 16 17.2 NE 22 33 12 18 1005.8 1004.5 0.0
28/05:00pm 37.8 31.6 7.7 16 17.2 ENE 30 37 16 20 1005.7 1004.4 0.0
28/04:30pm 38.6 34.8 7.4 15 17.8 E 17 30 9 16 1006.0 1004.7 0.0
28/04:00pm 37.6 34.6 9.2 18 16.6 SSE 15 22 8 12 1006.5 1005.2 0.0
28/03:30pm 35.7 31.8 9.3 20 15.3 SE 20 32 11 17 1006.8 1005.6 0.0
28/03:06pm 36.6 31.3 8.4 18 16.2 SE 26 50 14 27 1006.7 1005.5 0.0
28/03:00pm 36.2 33.3 11.1 22 15.0 ESE 17 32 9 17 1007.3 1006.1 0.0
28/02:30pm 38.4 33.0 8.1 16 17.4 N 26 43 14 23 1007.2 1006.0 0.0
28/02:00pm 37.4 31.3 8.2 17 16.8 E 30 41 16 22 1007.2 1006.0 0.0
28/01:47pm 38.0 33.4 9.6 18 16.7 ENE 24 48 13 26 1007.3 1006.1 0.0
28/01:30pm 37.4 33.0 7.3 16 17.0 NNE 20 35 11 19 1007.6 1006.4 0.0
28/01:00pm 36.9 32.0 7.0 16 16.8 NE 22 37 12 20 1007.8 1006.6 0.0
28/12:30pm 38.3 34.3 8.1 16 17.4 NNE 19 39 10 21 1008.1 1006.9 0.0
28/12:09pm 39.3 33.5 7.9 15 18.1 NNE 28 46 15 25 1008.3 1007.1 0.0
28/12:00pm 38.9 31.7 7.6 15 17.9 NNE 35 46 19 25 1008.4 1007.2 0.0
28/11:30am 38.6 32.9 8.3 16 17.5 NNE 28 39 15 21 1008.6 1007.4 0.0
28/11:11am 38.2 32.0 8.0 16 17.3 NNE 30 48 16 26 1008.9 1007.7 0.0
28/11:00am 37.5 31.3 9.2 18 16.5 N 32 46 17 25 1009.0 1007.8 0.0
28/10:30am 36.9 29.7 7.8 17 16.6 NNE 35 46 19 25 1009.2 1008.0 0.0
28/10:00am 36.0 27.8 8.0 18 15.9 NNE 41 56 22 30 1009.2 1008.0 0.0
28/09:30am 35.5 28.5 8.3 19 15.5 NNE 35 48 19 26 1009.6 1008.3 0.0
28/09:00am 34.7 28.3 8.4 20 15.0 NNE 32 43 17 23 1009.8 1008.5 0.0
28/08:30am 32.7 25.9 7.5 21 14.0 NE 33 44 18 24 1009.8 1008.5 0.0
28/08:00am 30.9 25.4 7.4 23 12.9 NE 26 33 14 18 1010.0 1008.7 0.0
28/07:30am 29.3 25.9 7.8 26 11.8 NE 15 32 8 17 1010.2 1008.9 0.0
28/07:00am 27.3 24.5 8.7 31 10.3 ENE 13 17 7 9 1010.0 1008.7 0.0
28/06:30am 25.3 22.5 8.7 35 9.1 E 13 15 7 8 1009.9 1008.6 0.0
28/06:00am 23.6 21.2 8.8 39 8.0 E 11 13 6 7 1009.7 1008.4 0.0
28/05:30am 23.4 20.6 8.7 39 7.9 E 13 17 7 9 1009.3 1008.1 0.0
28/05:00am 23.1 20.7 8.8 40 7.7 E 11 13 6 7 1009.0 1007.8 0.0
28/04:30am 21.4 18.6 6.9 39 7.5 NE 11 13 6 7 1008.7 1007.5 0.0
28/04:00am 23.2 20.4 6.9 35 8.5 E 11 11 6 6 1008.4 1007.2 0.0
28/03:30am 23.7 20.8 6.5 33 8.9 E 11 13 6 7 1008.1 1006.9 0.0
28/03:00am 23.8 20.4 6.1 32 9.2 ENE 13 15 7 8 1007.9 1006.7 0.0
28/02:30am 25.3 22.4 6.5 30 9.9 E 11 15 6 8 1007.7 1006.5 0.0
28/02:00am 25.1 22.1 5.8 29 10.0 E 11 15 6 8 1007.5 1006.3 0.0
28/01:30am 24.7 21.6 5.5 29 9.9 ENE 11 11 6 6 1007.5 1006.3 0.0
28/01:00am 27.0 23.6 5.9 26 11.1 E 13 19 7 10 1007.5 1006.3 0.0
28/12:30am 27.8 23.9 5.4 24 11.7 E 15 24 8 13 1007.4 1006.2 0.0
28/12:00am 28.7 23.9 4.9 22 12.4 ESE 19 26 10 14 1007.4 1006.2 0.0
 
Date/Time
WST
Temp
°C
App
Temp
°C
Dew
Point
Rel
Hum
%
Delta-T
°C
Wind Press
QNH
hPa
Press
MSL
hPa
Rain
since 9 am
mm
Dir
 
Spd
km/h
Gust
km/h
Spd
kts
Gust
kts
27/11:30pm 28.8 24.8 5.0 22 12.4 ESE 15 22 8 12 1007.4 1006.2 0.0
27/11:00pm 27.0 24.1 4.7 24 11.5 E 9 13 5 7 1007.7 1006.5 0.0
27/10:30pm 26.2 23.8 5.2 26 10.8 ENE 7 9 4 5 1007.6 1006.4 0.0
27/10:00pm 27.4 24.5 4.5 23 11.8 ESE 9 13 5 7 1007.8 1006.6 0.0
27/09:30pm 28.5 25.6 4.7 22 12.3 E 9 13 5 7 1007.7 1006.5 0.0
27/09:00pm 30.5 27.3 5.0 20 13.5 SE 11 15 6 8 1007.5 1006.3 0.0
27/08:30pm 32.0 28.3 4.7 18 14.4 SE 13 17 7 9 1007.2 1006.0 0.0
27/08:00pm 32.9 29.2 4.6 17 15.1 ESE 13 20 7 11 1006.9 1005.7 0.0
27/07:30pm 34.2 30.6 4.8 16 15.8 ESE 13 19 7 10 1006.7 1005.5 0.0
27/07:00pm 35.1 31.2 3.6 14 16.7 E 13 17 7 9 1006.5 1005.2 0.0
27/06:30pm 36.4 32.0 4.6 14 17.2 E 17 24 9 13 1006.3 1005.0 0.0
27/06:00pm 36.8 33.0 3.9 13 17.7 ESE 13 19 7 10 1006.2 1004.9 0.0
27/05:30pm 37.7 34.0 4.6 13 18.0 E 13 22 7 12 1006.1 1004.8 0.0
27/05:00pm 37.8 34.5 4.7 13 18.1 ESE 11 24 6 13 1005.9 1004.6 0.0
27/04:30pm 37.5 33.0 4.4 13 17.9 ESE 17 32 9 17 1006.1 1004.8 0.0
27/04:00pm 37.6 34.7 4.5 13 18.0 SE 9 20 5 11 1006.3 1005.0 0.0
27/03:30pm 37.6 32.6 4.5 13 18.0 ESE 20 35 11 19 1006.5 1005.2 0.0
27/03:00pm 38.7 35.3 4.2 12 18.8 NE 11 19 6 10 1006.7 1005.5 0.0
27/02:30pm 38.7 35.2 5.4 13 18.4 E 13 24 7 13 1006.8 1005.6 0.0
27/02:00pm 38.2 34.6 5.0 13 18.3 ENE 13 22 7 12 1007.2 1006.0 0.0
27/01:30pm 38.1 34.3 6.0 14 17.9 E 15 20 8 11 1007.5 1006.3 0.0
27/01:00pm 37.5 34.0 5.5 14 17.7 E 13 24 7 13 1007.8 1006.6 0.0
27/12:30pm 36.7 32.9 5.9 15 17.0 NE 15 30 8 16 1008.4 1007.2 0.0
27/12:00pm 36.6 32.8 5.8 15 17.0 ENE 15 33 8 18 1008.8 1007.6 0.0
27/11:30am 36.1 33.0 5.4 15 16.8 NNE 11 20 6 11 1009.2 1008.0 0.0
27/11:00am 34.9 31.0 5.4 16 16.0 NE 15 22 8 12 1009.8 1008.5 0.0
27/10:30am 34.3 29.9 4.9 16 15.8 ENE 17 26 9 14 1010.2 1008.9 0.0
27/10:00am 32.7 27.7 4.5 17 14.9 ENE 20 30 11 16 1010.4 1009.1 0.0
27/09:30am 31.3 26.2 4.2 18 14.2 ENE 20 32 11 17 1010.5 1009.2 0.0
27/09:00am 30.8 24.5 3.8 18 14.0 NE 26 35 14 19 1010.7 1009.4 0.0
27/08:30am 29.4 23.2 4.1 20 13.0 ENE 26 33 14 18 1010.9 1009.7 0.0
27/08:00am 27.9 21.6 3.6 21 12.3 ENE 26 33 14 18 1010.9 1009.7 0.0
27/07:30am 26.4 21.2 3.6 23 11.4 E 20 32 11 17 1010.8 1009.5 0.0
27/07:00am 24.4 20.0 4.7 28 10.0 ESE 17 22 9 12 1010.9 1009.7 0.0
27/06:30am 22.5 19.0 5.4 33 8.6 ESE 13 19 7 10 1010.7 1009.4 0.0
27/06:00am 20.7 16.9 5.9 38 7.5 SE 15 19 8 10 1010.4 1009.1 0.0
27/05:30am 20.7 16.5 5.9 38 7.5 ESE 17 20 9 11 1010.2 1008.9 0.0
27/05:00am 20.5 17.2 6.4 40 7.2 ESE 13 19 7 10 1010.0 1008.7 0.0
27/04:30am 20.7 17.1 6.6 40 7.2 ESE 15 19 8 10 1009.9 1008.6 0.0

Other Formats:

Comma delimited format used in spreadsheet applications
http://www.bom.gov.au/fwo/IDW60801/IDW60801.95625.axf

JavaScript Object Notation format (JSON) in row-major order
http://www.bom.gov.au/fwo/IDW60801/IDW60801.95625.json